createdAt,value
2018-06-01T00:00:37.763Z,17.10
2018-06-01T00:03:09.368Z,17.10
2018-06-01T00:05:38.619Z,17.10
2018-06-01T00:08:07.986Z,17.20
2018-06-01T00:10:38.644Z,17.20
2018-06-01T00:13:07.997Z,17.20
2018-06-01T00:15:37.757Z,17.20
2018-06-01T00:18:07.861Z,16.90
2018-06-01T00:20:37.602Z,17.00
2018-06-01T00:23:07.562Z,17.00
2018-06-01T00:25:38.279Z,17.10
2018-06-01T00:28:07.948Z,17.10
2018-06-01T00:30:37.191Z,17.10
2018-06-01T00:33:07.000Z,17.20
2018-06-01T00:35:37.024Z,17.20
2018-06-01T00:38:07.314Z,17.10
2018-06-01T00:40:37.361Z,17.10
2018-06-01T00:43:06.864Z,17.00
2018-06-01T00:45:36.211Z,16.90
2018-06-01T00:48:05.797Z,16.90
2018-06-01T00:50:36.069Z,17.00
2018-06-01T00:53:05.489Z,17.00
2018-06-01T00:55:35.588Z,17.10
2018-06-01T00:58:04.839Z,17.00
2018-06-01T01:00:34.984Z,16.80
2018-06-01T01:03:05.642Z,16.80
2018-06-01T01:05:36.482Z,16.60
2018-06-01T01:08:06.011Z,16.60
2018-06-01T01:10:36.214Z,16.80
2018-06-01T01:13:05.859Z,17.00
2018-06-01T01:15:35.540Z,17.10
2018-06-01T01:18:05.192Z,17.20
2018-06-01T01:20:34.717Z,17.30
2018-06-01T01:23:04.153Z,17.20
2018-06-01T01:25:33.956Z,17.10
2018-06-01T01:28:03.209Z,17.20
2018-06-01T01:30:32.654Z,17.20
2018-06-01T01:33:02.409Z,17.20
2018-06-01T01:35:31.680Z,17.40
2018-06-01T01:38:01.233Z,17.60
2018-06-01T01:40:31.164Z,17.70
2018-06-01T01:43:02.175Z,17.60
2018-06-01T01:45:31.794Z,17.60
2018-06-01T01:48:01.690Z,17.60
2018-06-01T01:50:33.026Z,17.70
2018-06-01T01:53:02.542Z,17.70
2018-06-01T01:55:32.698Z,17.60
2018-06-01T01:58:03.212Z,17.30
2018-06-01T02:00:32.811Z,17.30
2018-06-01T02:03:03.089Z,17.40
2018-06-01T02:05:33.487Z,17.30
2018-06-01T02:08:03.269Z,17.30
2018-06-01T02:10:33.013Z,17.30
2018-06-01T02:13:02.686Z,17.40
2018-06-01T02:15:31.981Z,17.10
2018-06-01T02:18:01.740Z,17.10
2018-06-01T02:20:31.052Z,17.00
2018-06-01T02:23:00.251Z,17.00
2018-06-01T02:25:30.215Z,17.00
2018-06-01T02:27:59.579Z,17.10
2018-06-01T02:30:29.945Z,17.20
2018-06-01T02:33:00.071Z,17.20
2018-06-01T02:35:29.583Z,17.30
2018-06-01T02:37:59.078Z,17.10
2018-06-01T02:40:29.156Z,16.80
2018-06-01T02:42:59.675Z,16.70
2018-06-01T02:45:29.202Z,16.70
2018-06-01T02:47:59.149Z,16.80
2018-06-01T02:50:28.903Z,16.60
2018-06-01T02:52:59.013Z,16.60
2018-06-01T02:55:29.494Z,16.90
2018-06-01T02:57:58.733Z,16.90
2018-06-01T03:00:28.003Z,17.00
2018-06-01T03:02:57.627Z,17.10
2018-06-01T03:05:26.868Z,17.00
2018-06-01T03:07:56.186Z,17.00
2018-06-01T03:10:27.158Z,16.50
2018-06-01T03:12:56.808Z,16.50
2018-06-01T03:15:27.176Z,16.80
2018-06-01T03:17:56.818Z,16.80
2018-06-01T03:20:26.371Z,17.00
2018-06-01T03:22:56.467Z,17.00
2018-06-01T03:25:26.778Z,17.00
2018-06-01T03:27:56.562Z,17.00
2018-06-01T03:30:26.371Z,17.00
2018-06-01T03:32:55.829Z,17.10
2018-06-01T03:35:25.427Z,17.10
2018-06-01T03:37:55.556Z,16.90
2018-06-01T03:40:26.928Z,16.70
2018-06-01T03:42:56.260Z,16.60
2018-06-01T03:45:25.699Z,16.60
2018-06-01T03:47:55.345Z,16.60
2018-06-01T03:50:25.392Z,16.70
2018-06-01T03:52:55.966Z,16.80
2018-06-01T03:55:25.576Z,16.80
2018-06-01T03:57:56.584Z,16.80
2018-06-01T04:00:26.322Z,16.80
2018-06-01T04:02:55.972Z,17.00
2018-06-01T04:05:26.277Z,17.00
2018-06-01T04:07:57.106Z,16.90
2018-06-01T04:10:26.726Z,17.00
2018-06-01T04:12:56.414Z,17.10
2018-06-01T04:15:25.705Z,17.10
2018-06-01T04:17:57.076Z,17.10
2018-06-01T04:20:28.562Z,17.10
2018-06-01T04:23:01.063Z,17.30
2018-06-01T04:25:33.884Z,17.30
2018-06-01T04:28:04.596Z,17.40
2018-06-01T04:30:35.477Z,17.20
2018-06-01T04:33:04.933Z,17.10
2018-06-01T05:19:21.009Z,19.10
2018-06-01T05:21:50.363Z,19.10
2018-06-01T05:24:20.788Z,19.20
2018-06-01T05:26:50.240Z,19.40
2018-06-01T05:29:19.487Z,19.40
2018-06-01T05:31:49.278Z,19.30
2018-06-01T05:34:19.630Z,19.50
2018-06-01T05:36:48.898Z,19.30
2018-06-01T05:39:21.758Z,19.10
2018-06-01T05:41:53.668Z,19.10
2018-06-01T05:44:27.397Z,19.00
2018-06-01T05:46:59.922Z,18.80
2018-06-01T05:49:30.340Z,18.60
2018-06-01T05:52:00.407Z,18.50
2018-06-01T05:54:30.626Z,18.40
2018-06-01T05:57:13.355Z,17.80
2018-06-01T05:59:46.443Z,17.80
2018-06-01T06:02:17.740Z,18.10
2018-06-01T06:04:47.099Z,18.30
2018-06-01T06:07:17.139Z,18.40
2018-06-01T06:09:47.123Z,18.50
2018-06-01T06:12:16.911Z,18.50
2018-06-01T06:14:46.291Z,18.30
2018-06-01T06:17:16.839Z,18.30
2018-06-01T06:19:46.673Z,18.60
2018-06-01T06:22:16.049Z,18.80
2018-06-01T06:24:46.361Z,18.90
2018-06-01T06:27:16.408Z,18.90
2018-06-01T06:29:45.912Z,19.00
2018-06-01T06:32:15.920Z,18.60
2018-06-01T06:34:46.335Z,18.30
2018-06-01T06:37:17.632Z,18.60
2018-06-01T06:39:53.624Z,18.90
2018-06-01T06:42:24.315Z,18.70
2018-06-01T06:44:53.880Z,18.90
2018-06-01T06:47:23.222Z,19.00
2018-06-01T06:49:53.284Z,19.30
2018-06-01T06:52:27.080Z,19.30
2018-06-01T06:54:58.183Z,19.50
2018-06-01T06:57:29.254Z,19.50
2018-06-01T06:59:58.688Z,19.50
2018-06-01T07:02:28.737Z,19.40
2018-06-01T07:05:03.889Z,19.60
2018-06-01T07:07:34.002Z,20.10
2018-06-01T07:10:04.716Z,20.20
2018-06-01T07:12:40.440Z,20.20
2018-06-01T07:15:10.372Z,20.00
2018-06-01T07:17:41.854Z,19.90
2018-06-01T07:20:11.492Z,20.40
2018-06-01T07:22:42.004Z,19.90
2018-06-01T07:25:12.108Z,19.60
2018-06-01T07:27:41.777Z,19.60
2018-06-01T07:30:11.463Z,19.60
2018-06-01T07:32:40.928Z,19.30
2018-06-01T07:35:13.104Z,18.90
2018-06-01T07:38:09.232Z,19.10
2018-06-01T07:40:38.744Z,19.40
2018-06-01T07:43:10.866Z,20.00
2018-06-01T07:45:43.074Z,20.00
2018-06-01T07:51:46.601Z,19.90
2018-06-01T07:54:17.248Z,19.80
2018-06-01T07:56:48.653Z,19.70
2018-06-01T07:59:48.117Z,20.10
2018-06-01T08:02:20.976Z,20.50
2018-06-01T08:04:50.585Z,21.00
2018-06-01T08:07:34.218Z,21.10
2018-06-01T08:10:03.922Z,21.60
2018-06-01T08:12:38.694Z,21.50
2018-06-01T08:15:08.481Z,21.60
2018-06-01T08:21:00.636Z,22.10
2018-06-01T08:23:30.643Z,21.70
2018-06-01T08:26:00.362Z,21.60
2018-06-01T08:28:31.017Z,21.70
2018-06-01T08:34:09.882Z,21.90
2018-06-01T08:36:40.180Z,21.90
2018-06-01T08:39:10.014Z,21.70
2018-06-01T08:41:40.785Z,21.10
2018-06-01T08:44:17.654Z,20.80
2018-06-01T08:46:47.623Z,20.90
2018-06-01T08:49:22.645Z,21.60
2018-06-01T08:54:46.637Z,21.90
2018-06-01T08:57:17.533Z,23.10
2018-06-01T08:59:54.682Z,23.10
2018-06-01T09:02:40.284Z,22.80
2018-06-01T09:05:14.134Z,23.20
2018-06-01T09:07:45.574Z,24.20
2018-06-01T09:10:18.375Z,24.40
2018-06-01T09:12:50.969Z,25.50
2018-06-01T09:15:27.409Z,25.50
2018-06-01T09:18:00.729Z,25.30
2018-06-01T09:20:46.822Z,25.90
2018-06-01T09:23:20.751Z,25.50
2018-06-01T09:25:57.834Z,25.40
2018-06-01T09:32:03.264Z,25.30
2018-06-01T09:34:40.889Z,25.90
2018-06-01T09:37:14.709Z,26.10
2018-06-01T09:39:46.556Z,26.10
2018-06-01T11:16:33.397Z,26.50
2018-06-01T11:19:04.844Z,25.70
2018-06-01T11:21:37.521Z,28.10
2018-06-01T11:24:08.642Z,29.10
2018-06-01T11:26:39.921Z,29.00
2018-06-01T11:29:11.933Z,26.10
2018-06-01T11:31:54.370Z,26.00
2018-06-01T11:34:24.244Z,26.00
2018-06-01T11:36:55.402Z,24.90
2018-06-01T11:39:26.739Z,24.80
2018-06-01T11:41:56.435Z,24.20
2018-06-01T11:44:26.180Z,24.30
2018-06-01T11:47:02.219Z,24.20
2018-06-01T11:49:34.179Z,24.20
2018-06-01T11:52:03.856Z,24.30
2018-06-01T11:54:33.260Z,24.60
2018-06-01T11:57:03.984Z,24.80
2018-06-01T11:59:34.363Z,24.30
2018-06-01T12:02:04.796Z,24.10
2018-06-01T12:07:56.066Z,23.50
2018-06-01T12:10:28.931Z,23.80
2018-06-01T12:12:59.771Z,23.20
2018-06-01T12:15:36.100Z,24.30
2018-06-01T12:18:08.526Z,24.30
2018-06-01T12:20:46.577Z,24.30
2018-06-01T12:26:24.341Z,23.60
2018-06-01T12:29:19.547Z,23.50
2018-06-01T12:32:00.611Z,23.70
2018-06-01T12:34:33.133Z,23.70
2018-06-01T12:37:04.386Z,23.90
2018-06-01T12:39:34.821Z,24.60
2018-06-01T12:42:06.688Z,24.00
2018-06-01T12:44:50.696Z,23.90
2018-06-01T12:47:22.905Z,24.00
2018-06-01T12:49:53.317Z,23.70
2018-06-01T12:52:22.738Z,23.70
2018-06-01T12:54:53.017Z,23.40
2018-06-01T12:57:22.628Z,23.90
2018-06-01T12:59:52.149Z,24.30
2018-06-01T13:02:34.976Z,24.50
2018-06-01T13:05:07.331Z,24.40
2018-06-01T13:07:42.999Z,24.20
2018-06-01T13:10:29.132Z,24.50
2018-06-01T13:13:00.075Z,24.40
2018-06-01T13:15:29.745Z,24.20
2018-06-01T13:18:00.770Z,24.70
2018-06-01T13:20:31.523Z,24.30
2018-06-01T13:23:05.306Z,24.30
2018-06-01T13:25:41.378Z,24.20
2018-06-01T13:28:29.801Z,24.40
2018-06-01T13:31:02.889Z,24.60
2018-06-01T13:33:33.469Z,24.90
2018-06-01T13:36:05.568Z,25.30
2018-06-01T13:38:38.814Z,25.70
2018-06-01T13:41:09.271Z,25.00
2018-06-01T13:43:38.977Z,25.20
2018-06-01T13:46:13.185Z,24.60
2018-06-01T13:48:45.184Z,24.50
2018-06-01T13:51:50.905Z,24.60
2018-06-01T13:54:20.413Z,24.90
2018-06-01T13:56:51.092Z,25.30
2018-06-01T13:59:21.047Z,24.80
2018-06-01T14:01:50.608Z,24.50
2018-06-01T14:04:20.661Z,24.80
2018-06-01T14:06:50.654Z,24.80
2018-06-01T14:09:24.892Z,24.70
2018-06-01T14:12:00.517Z,24.50
2018-06-01T14:14:29.865Z,24.80
2018-06-01T14:16:59.442Z,24.10
2018-06-01T14:19:29.167Z,24.20
2018-06-01T14:21:59.944Z,24.40
2018-06-01T14:24:31.157Z,24.50
2018-06-01T14:27:10.773Z,24.40
2018-06-01T14:32:59.286Z,24.20
2018-06-01T14:35:31.299Z,24.70
2018-06-01T14:38:06.404Z,24.60
2018-06-01T14:40:52.494Z,24.70
2018-06-01T14:43:22.803Z,24.60
2018-06-01T14:45:53.767Z,24.50
2018-06-01T14:48:23.506Z,24.20
2018-06-01T14:50:53.589Z,24.20
2018-06-01T14:53:33.301Z,24.30
2018-06-01T14:56:07.054Z,24.50
2018-06-01T14:58:36.996Z,24.50
2018-06-01T15:01:06.426Z,24.60
2018-06-01T15:03:52.129Z,24.40
2018-06-01T15:06:21.482Z,24.20
2018-06-01T15:08:50.921Z,24.30
2018-06-01T15:11:20.590Z,24.20
2018-06-01T15:13:56.365Z,24.40
2018-06-01T15:16:39.314Z,23.80
2018-06-01T15:19:09.541Z,23.80
2018-06-01T15:21:39.428Z,24.20
2018-06-01T15:24:10.187Z,24.40
2018-06-01T15:26:54.130Z,24.60
2018-06-01T15:29:24.231Z,24.20
2018-06-01T15:31:55.020Z,23.80
2018-06-01T15:37:47.707Z,23.80
2018-06-01T15:40:17.632Z,23.70
2018-06-01T15:42:47.386Z,23.70
2018-06-01T15:45:18.984Z,24.20
2018-06-01T15:47:48.569Z,24.10
2018-06-01T15:50:18.555Z,24.00
2018-06-01T15:52:50.257Z,24.20
2018-06-01T15:55:19.860Z,23.90
2018-06-01T15:57:50.912Z,23.40
2018-06-01T16:00:21.319Z,23.40
2018-06-01T16:02:51.047Z,24.00
2018-06-01T16:05:21.308Z,24.50
2018-06-01T16:07:53.567Z,24.60
2018-06-01T16:10:26.900Z,24.60
2018-06-01T16:13:01.262Z,24.20
2018-06-01T16:15:31.604Z,24.10
2018-06-01T16:18:03.263Z,24.30
2018-06-01T16:20:35.652Z,24.60
2018-06-01T16:23:13.519Z,24.50
2018-06-01T16:29:31.640Z,24.50
2018-06-01T16:35:53.153Z,24.80
2018-06-01T16:38:34.248Z,23.80
2018-06-01T16:41:30.878Z,23.40
2018-06-01T16:44:02.045Z,23.40
2018-06-01T16:46:31.898Z,23.20
2018-06-01T16:49:03.836Z,23.10
2018-06-01T16:51:33.996Z,23.20
2018-06-01T16:54:17.912Z,23.20
2018-06-01T16:56:47.455Z,23.30
2018-06-01T16:59:21.253Z,23.20
2018-06-01T17:02:21.125Z,22.90
2018-06-01T17:08:14.789Z,23.00
2018-06-01T17:10:57.929Z,22.70
2018-06-01T17:13:27.646Z,22.70
2018-06-01T17:15:56.973Z,22.40
2018-06-01T17:18:26.998Z,22.40
2018-06-01T17:20:56.523Z,22.30
2018-06-01T17:23:27.410Z,22.10
2018-06-01T17:25:56.661Z,22.30
2018-06-01T17:28:26.165Z,22.40
2018-06-01T17:31:00.115Z,22.20
2018-06-01T17:33:36.487Z,22.00
2018-06-01T17:36:08.487Z,21.90
2018-06-01T17:38:37.719Z,22.10
2018-06-01T17:41:07.479Z,22.10
2018-06-01T17:43:37.785Z,22.00
2018-06-01T17:46:07.885Z,22.00
2018-06-01T17:48:37.650Z,22.10
2018-06-01T17:51:07.420Z,22.00
2018-06-01T17:53:36.853Z,22.00
2018-06-01T17:56:06.550Z,21.90
2018-06-01T17:58:36.354Z,21.80
2018-06-01T18:01:06.379Z,21.60
2018-06-01T18:03:36.962Z,21.20
2018-06-01T18:06:07.488Z,21.30
2018-06-01T18:08:37.341Z,21.30
2018-06-01T18:11:07.517Z,20.90
2018-06-01T18:13:43.688Z,20.60
2018-06-01T18:16:14.469Z,19.90
2018-06-01T18:18:50.621Z,19.90
2018-06-01T18:21:27.701Z,20.50
2018-06-01T18:23:56.962Z,20.50
2018-06-01T18:26:26.253Z,20.60
2018-06-01T18:28:56.042Z,20.60
2018-06-01T18:31:25.311Z,20.50
2018-06-01T18:33:54.599Z,20.50
2018-06-01T18:36:24.327Z,20.60
2018-06-01T18:38:53.651Z,20.60
2018-06-01T18:41:23.039Z,20.20
2018-06-01T18:43:55.307Z,20.00
2018-06-01T18:46:25.502Z,20.10
2018-06-01T18:48:54.811Z,20.10
2018-06-01T18:51:25.487Z,19.80
2018-06-01T18:53:54.781Z,19.80
2018-06-01T18:56:23.969Z,19.20
2018-06-01T18:58:53.932Z,18.80
2018-06-01T19:01:25.607Z,18.50
2018-06-01T19:03:55.929Z,18.60
2018-06-01T19:06:26.989Z,18.50
2018-06-01T19:08:56.564Z,18.70
2018-06-01T19:11:25.964Z,18.90
2018-06-01T19:13:56.885Z,18.90
2018-06-01T19:16:26.182Z,18.90
2018-06-01T19:18:55.413Z,19.00
2018-06-01T19:21:24.780Z,19.00
2018-06-01T19:23:54.207Z,19.00
2018-06-01T19:26:24.310Z,19.10
2018-06-01T19:28:55.129Z,19.00
2018-06-01T19:31:24.846Z,19.00
2018-06-01T19:33:54.043Z,19.10
2018-06-01T19:36:23.703Z,19.10
2018-06-01T19:38:52.957Z,19.00
2018-06-01T19:41:22.205Z,19.10
2018-06-01T19:43:51.827Z,19.40
2018-06-01T19:46:21.146Z,19.40
2018-06-01T19:48:50.872Z,19.40
2018-06-01T19:51:20.588Z,19.00
2018-06-01T19:53:49.860Z,19.10
2018-06-01T19:56:19.051Z,18.60
2018-06-01T19:58:48.822Z,18.60
2018-06-01T20:01:19.321Z,18.60
2018-06-01T20:03:50.068Z,18.70
2018-06-01T20:06:19.982Z,18.60
2018-06-01T20:08:49.333Z,18.80
2018-06-01T20:11:19.232Z,18.70
2018-06-01T20:13:49.163Z,18.80
2018-06-01T20:16:21.673Z,18.70
2018-06-01T20:18:50.847Z,18.70
2018-06-01T20:21:20.624Z,18.80
2018-06-01T20:23:49.905Z,18.90
2018-06-01T20:26:19.909Z,18.90
2018-06-01T20:28:49.573Z,18.90
2018-06-01T20:31:18.776Z,18.80
2018-06-01T20:33:48.379Z,18.80
2018-06-01T20:36:19.645Z,18.60
2018-06-01T20:38:50.189Z,18.40
2018-06-01T20:41:20.382Z,18.40
2018-06-01T20:43:49.877Z,18.40
2018-06-01T20:46:20.001Z,18.40
2018-06-01T20:48:49.478Z,18.50
2018-06-01T20:51:19.992Z,18.50
2018-06-01T20:53:49.689Z,18.40
2018-06-01T20:56:19.763Z,18.40
2018-06-01T20:58:50.271Z,18.40
2018-06-01T21:01:19.535Z,18.60
2018-06-01T21:03:51.445Z,18.90
2018-06-01T21:06:23.725Z,18.90
2018-06-01T21:08:53.913Z,18.90
2018-06-01T21:11:23.172Z,18.80
2018-06-01T21:13:52.493Z,18.60
2018-06-01T21:16:21.678Z,18.60
2018-06-01T21:18:52.575Z,18.40
2018-06-01T21:21:21.958Z,18.40
2018-06-01T21:23:51.205Z,18.40
2018-06-01T21:26:21.354Z,18.60
2018-06-01T21:28:51.789Z,18.70
2018-06-01T21:31:21.815Z,18.40
2018-06-01T21:33:51.101Z,18.40
2018-06-01T21:36:20.807Z,18.40
2018-06-01T21:38:50.146Z,18.40
2018-06-01T21:41:19.347Z,18.20
2018-06-01T21:43:48.945Z,18.00
2018-06-01T21:46:18.220Z,17.80
2018-06-01T21:48:47.554Z,17.50
2018-06-01T21:51:17.226Z,17.30
2018-06-01T21:53:47.246Z,17.30
2018-06-01T21:56:17.176Z,16.90
2018-06-01T21:58:46.886Z,16.90
2018-06-01T22:01:18.125Z,17.10
2018-06-01T22:03:47.940Z,17.40
2018-06-01T22:06:18.489Z,17.00
2018-06-01T22:08:47.906Z,17.00
2018-06-01T22:11:17.424Z,17.00
2018-06-01T22:13:47.192Z,17.10
2018-06-01T22:16:16.435Z,17.10
2018-06-01T22:18:46.511Z,17.10
2018-06-01T22:21:16.311Z,17.00
2018-06-01T22:23:45.667Z,17.00
2018-06-01T22:26:14.943Z,16.90
2018-06-01T22:28:44.929Z,16.80
2018-06-01T22:31:14.358Z,16.80
2018-06-01T22:33:44.845Z,16.80
2018-06-01T23:58:14.449Z,16.80
